Startpagina
METAR-TAF:

METAR-TAF

Vliegvelden :

Sialkot, Pakistan

breedte: 32-32N, lengte: 74-22E, hoogte: 255 m

Actueel weer

Dit bericht is 23 minuten geleden gemaakt, om 05:00 UTC
Wind 6 kt uit het oosten
Temperatuur 30°C
Vochtigheid 59%
Druk 1009 hPa
Zicht: 4000 m
rook

METAR: OPST 190500Z 09006KT 4000 FU NSC 30/21 Q1009 NOSIG RH62

Tijdstip: 10:23 (05:23 UTC)


TAF: ontbreekt

Waarnemingen en weersverwachtingen van meer dan 4000 vliegvelden (METAR en TAF).

De beschikbare stations zijn de gele en rode punten op de kaart.

Ga met uw muis naar het station om de naam te zien.

Klik dan om waarnemingen en weersverwachtingen te zien.

kaart wijzigen: klik op de groene knoppen met een zwart kruis om in te zoomen, op de groene knop met een streepje om uit te zoomen of op de groene pijlen voor aangrenzende kaarten.


METAR-TAF: